createdAt,value
2019-02-24T00:00:11.072Z,57
2019-02-24T00:17:20.314Z,58.7
2019-02-24T00:30:11.178Z,56.8
2019-02-24T00:45:11.224Z,57.7
2019-02-24T01:00:11.254Z,54.4
2019-02-24T01:17:20.753Z,57.1
2019-02-24T01:30:11.305Z,59.6
2019-02-24T01:45:11.335Z,60
2019-02-24T02:00:11.420Z,59.3
2019-02-24T02:15:11.441Z,60.9
2019-02-24T02:30:11.665Z,59
2019-02-24T02:45:11.494Z,59.9
2019-02-24T03:00:11.595Z,58
2019-02-24T03:15:11.566Z,58.9
2019-02-24T03:30:11.663Z,59.8
2019-02-24T03:45:11.886Z,59.5
2019-02-24T04:00:11.771Z,61.9
2019-02-24T04:15:08.502Z,62.3
2019-02-24T04:30:08.407Z,62.1
2019-02-24T04:45:08.370Z,59.9
2019-02-24T05:00:08.421Z,61.9
2019-02-24T05:19:31.158Z,61.6
2019-02-24T05:30:10.524Z,61.8
2019-02-24T05:45:10.546Z,64
2019-02-24T06:00:10.637Z,62.4
2019-02-24T06:15:10.616Z,62.9
2019-02-24T06:30:10.685Z,63.1
2019-02-24T06:45:10.693Z,63.5
2019-02-24T07:00:14.671Z,62.2
2019-02-24T07:15:10.745Z,62.7
2019-02-24T07:30:10.807Z,62.3
2019-02-24T07:45:10.841Z,61.8
2019-02-24T08:00:10.961Z,62.6
2019-02-24T08:15:10.928Z,63.4
2019-02-24T08:30:11.031Z,63.3
2019-02-24T08:45:11.079Z,59.1
2019-02-24T09:00:11.138Z,59.6
2019-02-24T09:15:11.089Z,57.6
2019-02-24T09:30:11.087Z,57.5
2019-02-24T09:45:11.193Z,57
2019-02-24T10:00:11.699Z,57.7
2019-02-24T10:15:11.803Z,54.3
2019-02-24T10:30:11.734Z,55.5
2019-02-24T10:45:11.859Z,52
2019-02-24T11:00:11.866Z,51.6
2019-02-24T11:15:11.837Z,50.4
2019-02-24T11:30:11.912Z,51.6
2019-02-24T11:45:12.000Z,50.3
2019-02-24T12:00:12.127Z,51.8
2019-02-24T12:15:12.024Z,53
2019-02-24T12:30:12.085Z,55.7
2019-02-24T12:45:12.093Z,52
2019-02-24T13:00:12.152Z,50.9
2019-02-24T13:15:12.168Z,50
2019-02-24T13:30:12.194Z,49.9
2019-02-24T13:45:12.230Z,43.8
2019-02-24T14:00:12.346Z,47
2019-02-24T14:15:12.379Z,45.9
2019-02-24T14:30:12.421Z,45.5
2019-02-24T14:45:12.452Z,47.3
2019-02-24T15:00:12.495Z,46.1
2019-02-24T15:15:12.461Z,45
2019-02-24T15:30:12.577Z,44.1
2019-02-24T15:45:12.534Z,43.9
2019-02-24T16:00:12.602Z,44.4
2019-02-24T16:15:12.923Z,45.1
2019-02-24T16:30:12.677Z,48
2019-02-24T16:47:16.436Z,52.6
2019-02-24T17:00:06.940Z,53.5
2019-02-24T17:17:16.600Z,55.4
2019-02-24T17:30:07.605Z,59.4
2019-02-24T17:45:05.158Z,57.7
2019-02-24T18:00:10.085Z,58.6
2019-02-24T18:15:10.205Z,60
2019-02-24T18:30:10.242Z,62.3
2019-02-24T18:45:10.247Z,57.6
2019-02-24T19:00:10.306Z,59.6
2019-02-24T19:15:10.253Z,57.2
2019-02-24T19:30:10.360Z,61.6
2019-02-24T19:45:15.013Z,62.7
2019-02-24T20:00:04.963Z,63.7
2019-02-24T20:15:04.985Z,63.4
2019-02-24T20:30:04.968Z,64.1
2019-02-24T20:45:05.125Z,64.4
2019-02-24T21:00:05.102Z,66.6
2019-02-24T21:15:09.333Z,63.2
2019-02-24T21:30:09.370Z,66
2019-02-24T21:45:09.442Z,67.8
2019-02-24T22:00:09.445Z,65.9
2019-02-24T22:15:09.487Z,66.5
2019-02-24T22:30:09.541Z,67.2
2019-02-24T22:45:09.612Z,67.4
2019-02-24T23:00:09.618Z,68.8
2019-02-24T23:15:09.658Z,67.6
2019-02-24T23:30:09.715Z,67.2
2019-02-24T23:45:11.188Z,69.6
